Time;durP1;ratioP1;P1;durP2;ratioP2;P2;SDS_P1;SDS_P2;PMS_P1;PMS_P2;Temp;Humidity;BMP_temperature;BMP_pressure;BME280_temperature;BME280_humidity;BME280_pressure;Samples;Min_cycle;Max_cycle;Signal;HPM_P1;HPM_P2
2022/09/01 00:00:48;;;;;;;8.63;3.15;;;24.90;63.50;;;;;;5029977;28;20040;-60
2022/09/01 00:03:18;;;;;;;8.45;3.03;;;24.80;63.60;;;;;;5029627;28;20036;-60
2022/09/01 00:05:45;;;;;;;9.07;3.40;;;24.90;63.70;;;;;;5031059;28;20045;-60
2022/09/01 00:08:11;;;;;;;8.35;2.97;;;24.90;63.60;;;;;;5031153;28;20083;-60
2022/09/01 00:10:37;;;;;;;10.05;3.05;;;24.80;63.50;;;;;;5030713;28;20820;-60
2022/09/01 00:13:05;;;;;;;9.15;3.10;;;24.80;63.60;;;;;;5030389;28;20042;-60
2022/09/01 00:15:32;;;;;;;9.70;3.20;;;24.80;63.60;;;;;;5025376;28;20040;-60
2022/09/01 00:17:57;;;;;;;7.20;3.00;;;24.80;63.60;;;;;;5030889;28;20033;-60
2022/09/01 00:20:23;;;;;;;7.63;3.08;;;24.80;63.60;;;;;;5030608;28;20035;-60
2022/09/01 00:22:49;;;;;;;7.57;2.83;;;24.80;63.70;;;;;;5029973;28;20037;-60
2022/09/01 00:25:17;;;;;;;9.20;3.33;;;24.80;63.60;;;;;;5030382;28;20037;-60
2022/09/01 00:27:43;;;;;;;6.65;2.80;;;24.80;63.70;;;;;;5030650;28;20038;-60
2022/09/01 00:30:09;;;;;;;8.63;3.00;;;24.80;63.60;;;;;;5029149;28;20022;-60
2022/09/01 00:32:35;;;;;;;7.35;2.80;;;24.80;63.60;;;;;;5030323;28;20555;-60
2022/09/01 00:35:00;;;;;;;8.23;2.92;;;24.80;63.60;;;;;;5030033;28;20099;-60
2022/09/01 00:37:26;;;;;;;7.60;2.80;;;24.70;63.60;;;;;;5030476;28;20041;-60
2022/09/01 00:39:52;;;;;;;7.07;2.75;;;24.80;63.70;;;;;;5030622;28;20021;-60
2022/09/01 00:42:18;;;;;;;8.10;2.95;;;24.70;63.70;;;;;;5029967;28;20387;-60
2022/09/01 00:44:43;;;;;;;8.65;3.03;;;24.80;63.70;;;;;;5030434;28;20139;-60
2022/09/01 00:47:09;;;;;;;8.85;2.72;;;24.70;63.70;;;;;;5030135;28;20079;-60
2022/09/01 00:49:39;;;;;;;8.57;3.25;;;24.70;63.70;;;;;;5030454;28;20033;-60
2022/09/01 00:52:17;;;;;;;8.05;2.78;;;24.70;63.70;;;;;;5028622;28;20104;-60
2022/09/01 00:54:45;;;;;;;8.30;3.00;;;24.70;63.70;;;;;;5010792;28;20088;-60
2022/09/01 00:57:11;;;;;;;9.02;2.83;;;24.70;63.70;;;;;;5011133;28;20037;-60
2022/09/01 00:59:45;;;;;;;11.00;3.05;;;24.70;63.70;;;;;;5027653;28;20040;-60
2022/09/01 01:02:11;;;;;;;7.28;2.97;;;24.70;63.70;;;;;;5011406;28;20139;-60
2022/09/01 01:04:37;;;;;;;6.97;2.80;;;24.70;63.70;;;;;;5028536;28;20140;-60
2022/09/01 01:07:02;;;;;;;7.15;2.90;;;24.70;63.70;;;;;;5028847;28;20147;-60
2022/09/01 01:09:32;;;;;;;8.32;3.20;;;24.70;63.70;;;;;;5027587;28;20029;-60
2022/09/01 01:11:59;;;;;;;7.13;3.00;;;24.60;63.60;;;;;;5026313;28;20036;-60
2022/09/01 01:14:26;;;;;;;7.97;2.67;;;24.70;63.70;;;;;;5027778;28;20682;-60
2022/09/01 01:16:53;;;;;;;9.35;3.00;;;24.60;63.70;;;;;;5028003;28;20025;-60
2022/09/01 01:24:54;;;;;;;7.85;3.00;;;24.60;63.80;;;;;;5013350;28;20168;-60
2022/09/01 01:27:20;;;;;;;7.93;3.10;;;24.60;63.80;;;;;;5026907;28;20079;-60
2022/09/01 01:29:46;;;;;;;7.97;2.75;;;24.60;63.80;;;;;;5028350;28;20503;-60
2022/09/01 01:32:12;;;;;;;7.07;2.72;;;24.60;63.80;;;;;;5028430;28;20030;-60
2022/09/01 01:34:42;;;;;;;8.00;2.67;;;24.60;63.80;;;;;;5028052;28;20033;-60
2022/09/01 01:37:09;;;;;;;8.00;2.78;;;24.60;63.80;;;;;;5025164;28;20031;-60
2022/09/01 01:39:35;;;;;;;6.05;2.45;;;24.60;63.90;;;;;;5028501;28;20037;-60
2022/09/01 01:42:01;;;;;;;7.95;2.80;;;24.60;63.90;;;;;;5028384;28;20030;-60
2022/09/01 01:44:27;;;;;;;8.32;3.05;;;24.60;63.80;;;;;;5028246;28;21585;-60
2022/09/01 01:46:53;;;;;;;5.20;2.25;;;24.60;63.70;;;;;;5028431;28;20083;-60
2022/09/01 01:49:21;;;;;;;6.35;2.88;;;24.60;63.80;;;;;;5028052;28;20538;-60
2022/09/01 01:51:47;;;;;;;7.90;2.78;;;24.60;63.80;;;;;;5027718;28;20032;-60
2022/09/01 01:54:14;;;;;;;7.85;2.63;;;24.60;63.80;;;;;;4987638;28;1166658;-60
2022/09/01 01:56:40;;;;;;;7.22;2.63;;;24.50;64.80;;;;;;5028600;28;20026;-60
2022/09/01 01:59:06;;;;;;;8.40;3.10;;;24.60;63.80;;;;;;5029075;28;20034;-60
2022/09/01 02:01:32;;;;;;;8.60;3.00;;;24.50;63.70;;;;;;5028858;28;20102;-60
2022/09/01 02:03:59;;;;;;;7.00;2.60;;;24.50;63.80;;;;;;5029696;28;20414;-60
2022/09/01 02:06:25;;;;;;;7.10;2.50;;;24.50;63.80;;;;;;5028781;28;20179;-59
2022/09/01 02:08:55;;;;;;;6.95;2.78;;;24.50;63.70;;;;;;5028679;28;20026;-60
2022/09/01 02:11:21;;;;;;;8.60;2.50;;;24.50;63.80;;;;;;5029116;28;20400;-60
2022/09/01 02:13:48;;;;;;;7.50;2.70;;;24.50;63.80;;;;;;5027921;28;20059;-60
2022/09/01 02:16:15;;;;;;;6.07;2.50;;;24.50;63.80;;;;;;5027356;28;20029;-60
2022/09/01 02:18:46;;;;;;;6.85;2.60;;;24.50;63.90;;;;;;5028804;28;20029;-60
2022/09/01 02:21:17;;;;;;;7.00;2.60;;;24.50;63.90;;;;;;5029198;28;20041;-60
2022/09/01 02:23:43;;;;;;;7.05;2.90;;;24.50;63.70;;;;;;5027940;28;20042;-60
2022/09/01 02:26:10;;;;;;;7.95;2.70;;;24.50;63.80;;;;;;5028898;28;20022;-60
2022/09/01 02:28:38;;;;;;;6.93;2.50;;;24.50;63.70;;;;;;5026870;28;20036;-60
2022/09/01 02:31:07;;;;;;;6.55;2.58;;;24.50;63.80;;;;;;5029084;28;20022;-60
2022/09/01 02:33:33;;;;;;;6.45;2.60;;;24.50;63.90;;;;;;5028453;28;20868;-60
2022/09/01 02:36:01;;;;;;;6.85;2.70;;;24.40;63.80;;;;;;5028317;28;20017;-60
2022/09/01 02:38:28;;;;;;;7.10;2.60;;;24.40;63.80;;;;;;5024791;28;20104;-59
2022/09/01 02:40:55;;;;;;;5.72;2.40;;;24.40;63.70;;;;;;5028331;28;20483;-60
2022/09/01 02:43:21;;;;;;;6.30;2.50;;;24.40;63.80;;;;;;5027017;28;20045;-60
2022/09/01 02:45:54;;;;;;;5.50;2.50;;;24.40;63.80;;;;;;5028397;28;20037;-60
2022/09/01 02:48:36;;;;;;;5.85;2.45;;;24.40;63.80;;;;;;5028485;28;20029;-59
2022/09/01 02:51:08;;;;;;;7.32;2.58;;;24.40;63.80;;;;;;5027200;28;20040;-59
2022/09/01 02:53:34;;;;;;;6.45;2.42;;;24.40;63.80;;;;;;5026421;28;20100;-60
2022/09/01 02:56:01;;;;;;;6.30;2.50;;;24.40;63.80;;;;;;5028092;28;20125;-59
2022/09/01 02:58:28;;;;;;;6.97;2.60;;;24.40;63.90;;;;;;5028240;28;20112;-60
2022/09/01 03:00:56;;;;;;;7.25;2.65;;;24.40;63.80;;;;;;5028219;28;20580;-60
2022/09/01 03:03:23;;;;;;;6.95;2.60;;;24.40;63.80;;;;;;5027239;28;20038;-60
2022/09/01 03:05:54;;;;;;;5.38;2.55;;;24.40;63.90;;;;;;5027871;28;20091;-59
2022/09/01 03:08:20;;;;;;;6.32;2.40;;;24.40;63.80;;;;;;5027626;28;20052;-60
2022/09/01 03:10:46;;;;;;;6.55;2.55;;;24.40;63.80;;;;;;5028010;28;20509;-60
2022/09/01 03:13:16;;;;;;;7.63;2.47;;;24.40;63.80;;;;;;5027428;28;20037;-60
2022/09/01 03:15:42;;;;;;;8.48;2.95;;;24.40;63.80;;;;;;5027098;28;20030;-60
2022/09/01 03:18:08;;;;;;;6.13;2.47;;;24.30;63.80;;;;;;5026190;28;20029;-60
2022/09/01 03:20:35;;;;;;;7.60;2.50;;;24.40;63.80;;;;;;5025672;28;20075;-60
2022/09/01 03:23:01;;;;;;;5.05;2.30;;;24.30;63.80;;;;;;5026124;28;20490;-59
2022/09/01 03:25:28;;;;;;;5.30;2.40;;;24.30;63.80;;;;;;5027113;28;20026;-60
2022/09/01 03:28:00;;;;;;;5.15;2.33;;;24.30;63.80;;;;;;5027526;28;20394;-59
2022/09/01 03:30:27;;;;;;;5.95;2.40;;;24.30;63.80;;;;;;5027766;28;20120;-60
2022/09/01 03:32:53;;;;;;;7.68;2.40;;;24.30;64.80;;;;;;5027675;28;20087;-60
2022/09/01 03:35:19;;;;;;;6.90;2.70;;;24.30;63.80;;;;;;5027484;28;20029;-60
2022/09/01 03:37:44;;;;;;;5.97;2.30;;;24.30;63.80;;;;;;5027282;28;20022;-60
2022/09/01 03:40:11;;;;;;;6.07;2.70;;;24.30;63.80;;;;;;5028070;28;20025;-60
2022/09/01 03:42:36;;;;;;;5.13;2.40;;;24.30;63.80;;;;;;5027571;28;20037;-60
2022/09/01 03:45:08;;;;;;;4.75;2.50;;;24.30;63.80;;;;;;5027861;28;20033;-60
2022/09/01 03:47:38;;;;;;;6.20;2.58;;;24.30;63.80;;;;;;5027688;28;20036;-60
2022/09/01 03:50:19;;;;;;;5.57;2.35;;;24.30;63.80;;;;;;5027191;28;20032;-59
2022/09/01 03:53:03;;;;;;;6.15;2.47;;;24.30;63.80;;;;;;5027265;28;20029;-59
2022/09/01 03:55:31;;;;;;;6.83;2.57;;;24.30;63.80;;;;;;5026848;28;20049;-59
2022/09/01 03:58:02;;;;;;;6.38;2.60;;;24.30;63.80;;;;;;5026190;28;21032;-60
2022/09/01 04:00:28;;;;;;;6.22;2.25;;;24.20;63.70;;;;;;5026932;28;20140;-59
2022/09/01 04:02:56;;;;;;;4.38;2.22;;;24.30;63.80;;;;;;5027732;28;20053;-59
2022/09/01 04:05:27;;;;;;;5.97;2.53;;;24.30;63.80;;;;;;5026802;28;20025;-60
2022/09/01 04:07:54;;;;;;;4.50;2.30;;;24.30;63.80;;;;;;5027372;28;20026;-59
2022/09/01 04:10:21;;;;;;;6.72;2.38;;;24.20;63.70;;;;;;5025385;28;20026;-59
2022/09/01 04:12:46;;;;;;;4.88;2.38;;;24.20;63.70;;;;;;5027177;28;20087;-60
2022/09/01 04:15:13;;;;;;;6.25;2.58;;;24.20;63.70;;;;;;5027235;28;20021;-60
2022/09/01 04:20:22;;;;;;;5.13;2.40;;;24.20;63.80;;;;;;5026842;28;20032;-59
2022/09/01 04:22:52;;;;;;;4.65;2.20;;;24.20;63.70;;;;;;5026900;28;20038;-60
2022/09/01 04:25:22;;;;;;;4.13;2.00;;;24.20;63.70;;;;;;5026519;28;20083;-60
2022/09/01 04:27:49;;;;;;;5.28;2.30;;;24.20;63.70;;;;;;5026780;28;20025;-60
2022/09/01 04:30:15;;;;;;;5.38;2.40;;;24.20;63.70;;;;;;5027341;28;20074;-60
2022/09/01 04:32:42;;;;;;;5.85;2.22;;;24.20;63.80;;;;;;5023112;28;20037;-60
2022/09/01 04:35:15;;;;;;;4.80;2.28;;;24.20;63.70;;;;;;5024810;28;20037;-59
2022/09/01 04:37:41;;;;;;;4.95;2.22;;;24.20;63.80;;;;;;5026333;28;20039;-60
2022/09/01 04:40:08;;;;;;;6.72;2.70;;;24.20;63.70;;;;;;5027165;28;20026;-59
2022/09/01 04:42:34;;;;;;;5.40;2.25;;;24.20;63.70;;;;;;5026246;28;20029;-59
2022/09/01 04:45:00;;;;;;;4.78;2.10;;;24.10;64.70;;;;;;5027236;28;20096;-59
2022/09/01 04:47:29;;;;;;;4.15;2.00;;;24.10;63.70;;;;;;5029586;28;20037;-60
2022/09/01 04:49:57;;;;;;;6.38;2.25;;;24.10;63.70;;;;;;5030246;28;20508;-59
2022/09/01 04:52:24;;;;;;;5.18;2.17;;;24.10;63.70;;;;;;5030732;28;20025;-59
2022/09/01 04:54:49;;;;;;;5.05;2.38;;;24.10;63.70;;;;;;5030378;28;20056;-59
2022/09/01 04:57:15;;;;;;;5.43;2.13;;;24.10;63.70;;;;;;5030518;28;20030;-59
2022/09/01 04:59:42;;;;;;;6.15;2.30;;;24.10;63.70;;;;;;5030694;28;20040;-60
2022/09/01 05:02:11;;;;;;;5.43;2.35;;;24.10;63.70;;;;;;5029878;28;20521;-59
2022/09/01 05:04:40;;;;;;;5.05;2.20;;;24.10;63.70;;;;;;5029283;28;20037;-59
2022/09/01 05:07:07;;;;;;;5.82;2.30;;;24.10;63.70;;;;;;5026542;28;20025;-59
2022/09/01 05:09:37;;;;;;;4.97;2.33;;;24.10;63.70;;;;;;5029997;28;20697;-60
2022/09/01 05:12:15;;;;;;;5.78;2.30;;;24.10;63.70;;;;;;5030333;28;20029;-59
2022/09/01 05:14:43;;;;;;;4.32;2.05;;;24.10;63.70;;;;;;5027626;28;20052;-60
2022/09/01 05:17:09;;;;;;;4.93;2.05;;;24.10;63.70;;;;;;5028628;28;20120;-60
2022/09/01 05:19:37;;;;;;;5.72;2.15;;;24.10;63.70;;;;;;5029828;28;20056;-59
2022/09/01 05:22:03;;;;;;;4.13;2.10;;;24.10;63.70;;;;;;5028613;28;20099;-59
2022/09/01 05:24:30;;;;;;;5.38;2.30;;;24.10;63.70;;;;;;5028482;28;20051;-59
2022/09/01 05:26:58;;;;;;;6.28;2.20;;;24.10;63.80;;;;;;5027032;28;20041;-59
2022/09/01 05:29:26;;;;;;;6.45;2.17;;;24.20;63.90;;;;;;5028970;28;20044;-59
2022/09/01 05:31:54;;;;;;;4.88;2.00;;;24.20;63.80;;;;;;5028256;28;20643;-59
2022/09/01 05:34:25;;;;;;;6.65;2.30;;;24.20;64.10;;;;;;5027457;28;20522;-60
2022/09/01 05:36:50;;;;;;;6.43;2.10;;;24.20;64.30;;;;;;5023711;28;20018;-59
2022/09/01 05:39:16;;;;;;;7.03;2.30;;;24.20;64.50;;;;;;5029155;28;20030;-59
2022/09/01 05:41:42;;;;;;;6.18;2.35;;;24.10;64.10;;;;;;5025749;28;20109;-59
2022/09/01 05:44:08;;;;;;;5.95;2.30;;;24.10;64.20;;;;;;5029683;28;20033;-59
2022/09/01 05:46:36;;;;;;;5.38;2.10;;;24.10;64.30;;;;;;5028482;28;20036;-59
2022/09/01 05:49:02;;;;;;;7.05;2.13;;;24.10;64.40;;;;;;5027616;28;20112;-59
2022/09/01 05:51:28;;;;;;;6.55;2.20;;;24.10;64.50;;;;;;5028940;28;20473;-59
2022/09/01 05:53:57;;;;;;;7.10;2.25;;;24.10;64.50;;;;;;5028303;28;20041;-59
2022/09/01 05:56:23;;;;;;;11.75;2.75;;;24.10;64.60;;;;;;5028280;28;20037;-59
2022/09/01 05:58:49;;;;;;;5.93;2.47;;;24.10;64.70;;;;;;5028620;28;20035;-59
2022/09/01 06:01:23;;;;;;;6.13;2.40;;;24.10;64.70;;;;;;5028255;28;20255;-59
2022/09/01 06:03:53;;;;;;;6.22;2.28;;;24.10;64.90;;;;;;5027003;28;20124;-59
2022/09/01 06:06:29;;;;;;;7.15;2.40;;;24.10;64.80;;;;;;5026265;28;20061;-59
2022/09/01 06:08:57;;;;;;;7.65;2.30;;;24.00;64.80;;;;;;5028820;28;20109;-59
2022/09/01 06:11:24;;;;;;;4.13;1.98;;;24.10;64.80;;;;;;5029115;28;20667;-60
2022/09/01 06:13:51;;;;;;;8.07;2.20;;;24.10;64.80;;;;;;5028099;28;20025;-59
2022/09/01 06:16:18;;;;;;;6.55;2.20;;;24.10;65.90;;;;;;5025008;28;20495;-59
2022/09/01 06:18:45;;;;;;;6.10;2.20;;;24.00;64.90;;;;;;5028916;28;20163;-59
2022/09/01 06:21:13;;;;;;;5.68;2.30;;;24.00;64.80;;;;;;5028447;28;20113;-59
2022/09/01 06:23:42;;;;;;;7.30;2.47;;;24.00;65.00;;;;;;5028314;28;20041;-60
2022/09/01 06:26:18;;;;;;;5.60;2.30;;;24.00;64.90;;;;;;5027521;28;20030;-60
2022/09/01 06:28:44;;;;;;;5.25;2.05;;;24.00;65.00;;;;;;5028559;28;20405;-60
2022/09/01 06:31:10;;;;;;;5.30;2.03;;;24.00;64.90;;;;;;5028413;28;20032;-60
2022/09/01 06:33:37;;;;;;;5.40;2.05;;;24.00;64.90;;;;;;5028916;28;20021;-60
2022/09/01 06:36:04;;;;;;;5.82;2.10;;;24.00;64.90;;;;;;5027752;28;20029;-60
2022/09/01 06:38:30;;;;;;;5.82;2.30;;;24.00;65.00;;;;;;5028364;28;20069;-60
2022/09/01 06:41:00;;;;;;;8.25;2.75;;;24.00;64.90;;;;;;5028425;28;20049;-60
2022/09/01 06:43:29;;;;;;;5.80;2.10;;;24.00;65.00;;;;;;5027404;28;20045;-60
2022/09/01 06:45:55;;;;;;;7.15;2.33;;;24.00;65.00;;;;;;5027897;28;20022;-60
2022/09/01 06:48:22;;;;;;;6.05;2.20;;;24.00;65.10;;;;;;5028425;28;20083;-60
2022/09/01 06:50:48;;;;;;;5.75;2.25;;;24.00;65.10;;;;;;5028084;28;20027;-60
2022/09/01 06:53:17;;;;;;;6.30;2.35;;;24.00;65.00;;;;;;5025627;28;20116;-60
2022/09/01 06:55:45;;;;;;;6.43;2.40;;;24.00;65.10;;;;;;5028367;28;20034;-60
2022/09/01 06:58:12;;;;;;;6.32;2.03;;;24.00;65.20;;;;;;5027144;28;20036;-60
2022/09/01 07:00:40;;;;;;;5.10;2.03;;;24.00;65.10;;;;;;5027925;28;20506;-60
2022/09/01 07:03:10;;;;;;;5.10;2.33;;;23.90;65.00;;;;;;5028421;28;20049;-59
2022/09/01 07:05:45;;;;;;;5.00;2.08;;;24.00;65.10;;;;;;5028194;28;20064;-60
2022/09/01 07:08:16;;;;;;;5.10;2.05;;;24.00;65.20;;;;;;5027219;28;20022;-60
2022/09/01 07:10:52;;;;;;;6.93;2.33;;;24.00;65.10;;;;;;5027709;28;20021;-59
2022/09/01 07:13:24;;;;;;;5.15;2.08;;;24.00;66.20;;;;;;5027275;28;20075;-59
2022/09/01 07:15:51;;;;;;;5.40;2.10;;;24.00;65.00;;;;;;5026572;28;20048;-59
2022/09/01 07:18:17;;;;;;;5.75;2.28;;;23.90;65.00;;;;;;5025241;28;20044;-60
2022/09/01 07:20:43;;;;;;;4.82;1.83;;;24.00;65.10;;;;;;5027056;28;20017;-59
2022/09/01 07:23:10;;;;;;;6.20;2.20;;;23.90;65.00;;;;;;5024624;28;20450;-60
2022/09/01 07:25:40;;;;;;;5.05;1.98;;;23.90;65.00;;;;;;5024339;28;20413;-60
2022/09/01 07:28:07;;;;;;;6.20;2.10;;;23.90;65.00;;;;;;5026530;28;20033;-59
2022/09/01 07:30:34;;;;;;;5.65;2.22;;;23.90;65.00;;;;;;5027712;28;20036;-60
2022/09/01 07:32:59;;;;;;;5.25;2.13;;;24.00;65.20;;;;;;5027938;28;20095;-60
2022/09/01 07:35:25;;;;;;;4.72;1.92;;;23.90;65.00;;;;;;5027934;28;20021;-60
2022/09/01 07:37:51;;;;;;;6.97;1.98;;;23.90;65.00;;;;;;5027168;28;20033;-59
2022/09/01 07:40:20;;;;;;;5.07;2.28;;;23.90;65.00;;;;;;5027587;28;20038;-59
2022/09/01 07:42:46;;;;;;;8.18;2.50;;;23.90;65.00;;;;;;5027099;28;20135;-59
2022/09/01 07:45:13;;;;;;;7.38;2.40;;;23.90;65.00;;;;;;5026931;28;20579;-59
2022/09/01 07:47:38;;;;;;;5.43;2.20;;;23.90;65.00;;;;;;5027420;28;20037;-59
2022/09/01 07:50:07;;;;;;;4.57;1.92;;;23.90;65.10;;;;;;5026711;28;20036;-59
2022/09/01 07:52:41;;;;;;;4.55;2.20;;;23.90;65.00;;;;;;5026874;28;20025;-60
2022/09/01 07:55:16;;;;;;;;;;;23.90;65.00;;;;;;5022672;28;20068;-59
2022/09/01 07:57:44;;;;;;;4.90;2.05;;;23.90;65.10;;;;;;5025057;28;19909;-59
2022/09/01 08:00:11;;;;;;;5.55;2.20;;;23.80;65.00;;;;;;5022583;28;20545;-60
2022/09/01 08:02:42;;;;;;;5.57;2.10;;;23.90;65.00;;;;;;5026836;28;20091;-59
2022/09/01 08:05:10;;;;;;;3.40;1.80;;;23.90;65.10;;;;;;5024014;28;20033;-59
2022/09/01 08:07:36;;;;;;;4.40;1.85;;;23.90;65.20;;;;;;5024470;28;20053;-59
2022/09/01 08:10:03;;;;;;;6.00;2.15;;;23.90;65.10;;;;;;5028899;28;20051;-60
2022/09/01 08:12:29;;;;;;;4.90;2.15;;;23.90;65.10;;;;;;5027160;28;20478;-60
2022/09/01 08:14:55;;;;;;;4.63;2.08;;;23.80;65.10;;;;;;5026454;28;20028;-59
2022/09/01 08:17:21;;;;;;;5.93;2.15;;;23.90;65.20;;;;;;5025992;28;20033;-60
2022/09/01 08:19:47;;;;;;;4.75;2.00;;;23.80;65.20;;;;;;5026691;28;20087;-60
2022/09/01 08:22:14;;;;;;;4.13;1.90;;;23.90;65.20;;;;;;5030132;28;20120;-60
2022/09/01 08:24:39;;;;;;;4.47;1.70;;;23.80;65.10;;;;;;5030525;28;20098;-60
2022/09/01 08:27:05;;;;;;;5.28;1.90;;;23.80;65.10;;;;;;5026401;28;20529;-60
2022/09/01 08:29:31;;;;;;;4.45;2.10;;;23.90;65.20;;;;;;5030753;28;20030;-60
2022/09/01 08:31:57;;;;;;;4.40;2.10;;;23.80;65.10;;;;;;5029395;28;20025;-60
2022/09/01 08:34:24;;;;;;;3.75;2.05;;;23.80;65.10;;;;;;5029201;28;20505;-59
2022/09/01 08:36:51;;;;;;;5.85;2.00;;;23.80;65.20;;;;;;5030783;28;20095;-60
2022/09/01 08:39:17;;;;;;;5.00;1.90;;;23.80;65.10;;;;;;5025409;28;20079;-60
2022/09/01 08:41:44;;;;;;;5.30;2.00;;;23.80;65.20;;;;;;5019955;28;20033;-60
2022/09/01 08:44:18;;;;;;;3.85;2.00;;;23.80;65.10;;;;;;5030369;28;20037;-60
2022/09/01 08:46:44;;;;;;;5.97;2.17;;;23.80;65.20;;;;;;5034857;28;20030;-60
2022/09/01 08:49:18;;;;;;;4.22;2.00;;;23.80;65.30;;;;;;5031082;28;20397;-60
2022/09/01 08:52:01;;;;;;;5.20;1.90;;;23.80;65.20;;;;;;5026309;28;20075;-60
2022/09/01 08:54:37;;;;;;;6.07;1.85;;;23.80;65.20;;;;;;5024919;28;20125;-58
2022/09/01 08:57:19;;;;;;;5.13;2.05;;;23.80;65.40;;;;;;5026527;28;20025;-58
2022/09/01 08:59:45;;;;;;;4.55;2.30;;;23.80;65.40;;;;;;5028704;28;20033;-58
2022/09/01 09:02:16;;;;;;;6.18;2.03;;;23.80;65.50;;;;;;5024909;28;20406;-58
2022/09/01 09:05:04;;;;;;;9.50;2.30;;;23.80;65.70;;;;;;5028163;28;20037;-58
2022/09/01 09:07:36;;;;;;;6.10;2.38;;;23.80;65.70;;;;;;5031614;28;20095;-59
2022/09/01 09:10:42;;;;;;;3.63;1.70;;;23.90;65.70;;;;;;5033751;28;20029;-59
2022/09/01 09:13:17;;;;;;;7.47;1.92;;;23.90;65.50;;;;;;5025318;28;20076;-59
2022/09/01 09:16:03;;;;;;;5.22;1.92;;;23.80;65.50;;;;;;5028719;28;20021;-59
2022/09/01 09:18:38;;;;;;;4.63;2.00;;;23.80;65.50;;;;;;5031528;28;20030;-58
2022/09/01 09:21:37;;;;;;;7.28;2.15;;;23.90;65.60;;;;;;5029225;28;20028;-58
2022/09/01 09:24:15;;;;;;;9.40;2.30;;;23.80;65.50;;;;;;5027012;28;20045;-59
2022/09/01 09:26:40;;;;;;;4.10;2.10;;;23.90;65.60;;;;;;5036268;28;20100;-58
2022/09/01 09:29:06;;;;;;;5.82;2.13;;;23.90;65.60;;;;;;5025184;28;20151;-58
2022/09/01 09:31:41;;;;;;;4.07;2.03;;;23.90;65.80;;;;;;5025657;28;20107;-58
2022/09/01 09:34:31;;;;;;;6.43;1.98;;;23.90;66.20;;;;;;5025185;28;20025;-60
2022/09/01 09:37:00;;;;;;;4.45;1.92;;;23.90;66.20;;;;;;5028505;28;20029;-60
2022/09/01 09:39:25;;;;;;;5.18;2.10;;;23.90;66.10;;;;;;5025195;28;20036;-59
2022/09/01 09:42:09;;;;;;;5.13;1.73;;;23.90;65.80;;;;;;5030373;28;20421;-59
2022/09/01 09:44:43;;;;;;;4.50;1.90;;;24.00;65.90;;;;;;5029305;28;20079;-60
2022/09/01 09:47:09;;;;;;;4.85;1.98;;;23.90;65.70;;;;;;5026779;28;20033;-59
2022/09/01 09:49:35;;;;;;;6.35;1.80;;;23.90;65.80;;;;;;5027619;28;20108;-59
2022/09/01 09:52:01;;;;;;;7.47;2.20;;;23.90;65.70;;;;;;5032810;28;20124;-60
2022/09/01 09:54:28;;;;;;;3.40;1.90;;;24.00;65.80;;;;;;5033475;28;20124;-60
2022/09/01 09:57:13;;;;;;;5.55;1.70;;;23.90;65.90;;;;;;5023258;28;20025;-60
2022/09/01 10:00:17;;;;;;;5.45;1.98;;;23.90;66.00;;;;;;5023988;28;20041;-60
2022/09/01 10:02:43;;;;;;;3.45;1.60;;;24.00;66.50;;;;;;5044830;28;20060;-61
2022/09/01 10:05:39;;;;;;;4.63;1.80;;;24.00;66.40;;;;;;5021086;28;20139;-59
2022/09/01 10:08:05;;;;;;;;;;;24.00;66.30;;;;;;5027092;28;20029;-59
2022/09/01 10:10:48;;;;;;;10.30;1.98;;;24.00;66.30;;;;;;5056151;28;19913;-60
2022/09/01 10:13:21;;;;;;;7.30;1.90;;;24.00;66.10;;;;;;5028342;28;20037;-59
2022/09/01 10:15:49;;;;;;;5.38;1.83;;;24.10;66.40;;;;;;5023018;28;20025;-59
2022/09/01 10:18:17;;;;;;;4.57;2.00;;;24.10;66.20;;;;;;5030307;28;20421;-59
2022/09/01 10:20:48;;;;;;;5.03;1.83;;;24.10;66.20;;;;;;5026462;28;20025;-59
2022/09/01 10:23:13;;;;;;;8.98;1.88;;;24.10;66.20;;;;;;5023208;28;20503;-60
2022/09/01 10:25:40;;;;;;;5.22;1.88;;;24.10;66.30;;;;;;5023565;28;20036;-60
2022/09/01 10:28:13;;;;;;;8.65;1.90;;;24.10;66.50;;;;;;5011261;28;20045;-61
2022/09/01 10:30:41;;;;;;;8.45;1.90;;;24.10;66.80;;;;;;5026657;28;20045;-61
2022/09/01 10:33:07;;;;;;;9.25;2.05;;;24.10;66.70;;;;;;5025740;28;20461;-60
2022/09/01 10:35:38;;;;;;;9.77;1.90;;;24.10;66.50;;;;;;5030883;28;20026;-60
2022/09/01 10:38:10;;;;;;;6.28;1.70;;;24.10;66.30;;;;;;5028394;28;20513;-62
2022/09/01 10:40:44;;;;;;;8.98;1.90;;;24.20;66.30;;;;;;5044142;28;20437;-63
2022/09/01 10:43:33;;;;;;;4.85;1.70;;;24.20;66.20;;;;;;5023941;28;20045;-60
2022/09/01 10:45:59;;;;;;;7.88;1.73;;;24.20;66.30;;;;;;5054296;28;20040;-60
2022/09/01 10:48:30;;;;;;;7.47;2.17;;;24.30;66.30;;;;;;5024628;28;20108;-60
2022/09/01 10:51:13;;;;;;;7.45;1.90;;;24.30;66.40;;;;;;5026359;28;20029;-60
2022/09/01 10:53:45;;;;;;;6.70;1.92;;;24.30;66.10;;;;;;5027772;28;20049;-61
2022/09/01 10:56:14;;;;;;;6.55;2.00;;;24.30;66.00;;;;;;5025722;28;20033;-59
2022/09/01 10:58:58;;;;;;;9.65;1.90;;;24.30;66.10;;;;;;5026065;28;20025;-60
2022/09/01 11:01:39;;;;;;;9.00;1.90;;;24.30;66.10;;;;;;5027171;28;20413;-60
2022/09/01 11:04:17;;;;;;;7.20;2.10;;;24.30;65.90;;;;;;5024691;28;20459;-60
2022/09/01 11:07:03;;;;;;;9.77;2.08;;;24.30;66.10;;;;;;5024238;28;20033;-59
2022/09/01 11:09:38;;;;;;;7.85;1.90;;;24.30;66.10;;;;;;5023223;28;20033;-60
2022/09/01 11:12:16;;;;;;;;;;;24.40;67.20;;;;;;5024478;28;20040;-59
2022/09/01 11:14:53;;;;;;;5.25;1.90;;;24.40;65.90;;;;;;5025524;28;19959;-62
2022/09/01 11:17:25;;;;;;;8.93;2.35;;;24.40;66.10;;;;;;5021293;28;20038;-60
2022/09/01 11:20:07;;;;;;;11.60;1.85;;;24.40;66.10;;;;;;5026678;28;20378;-59
2022/09/01 11:22:57;;;;;;;7.53;2.10;;;24.40;66.10;;;;;;5022463;28;20041;-61
2022/09/01 11:25:35;;;;;;;8.35;2.10;;;24.40;66.10;;;;;;5026472;28;20029;-59
2022/09/01 11:28:04;;;;;;;7.10;2.10;;;24.40;66.10;;;;;;5026061;28;20030;-59
2022/09/01 11:30:30;;;;;;;3.55;1.83;;;24.40;66.10;;;;;;5024753;28;20014;-60
2022/09/01 11:33:40;;;;;;;6.53;1.95;;;24.40;66.00;;;;;;5026237;28;20030;-60
2022/09/01 11:36:34;;;;;;;8.63;1.90;;;24.40;65.80;;;;;;5026285;28;20026;-59
2022/09/01 11:39:18;;;;;;;20.60;2.08;;;24.40;66.00;;;;;;5027141;28;20025;-59
2022/09/01 11:42:02;;;;;;;7.78;1.88;;;24.50;65.90;;;;;;5026411;28;20034;-59
2022/09/01 11:44:33;;;;;;;9.68;2.20;;;24.50;65.90;;;;;;5024293;28;20638;-61
2022/09/01 11:47:04;;;;;;;6.03;1.95;;;24.50;65.70;;;;;;5022988;28;20034;-60
2022/09/01 11:49:35;;;;;;;9.23;2.00;;;24.50;65.70;;;;;;5023144;28;20125;-60
2022/09/01 11:52:01;;;;;;;7.60;2.30;;;24.60;65.90;;;;;;5023673;28;20079;-60
2022/09/01 11:54:28;;;;;;;17.75;2.45;;;24.60;65.70;;;;;;5032083;28;20102;-61
2022/09/01 11:56:53;;;;;;;8.60;2.10;;;24.60;65.70;;;;;;5031464;28;20029;-61
2022/09/01 11:59:33;;;;;;;6.40;1.83;;;24.60;65.50;;;;;;5033502;28;20029;-58
2022/09/01 12:02:00;;;;;;;7.05;1.83;;;24.70;65.50;;;;;;5032515;28;20063;-59
2022/09/01 12:04:30;;;;;;;8.25;2.00;;;24.70;65.40;;;;;;5029627;28;20030;-61
2022/09/01 12:06:58;;;;;;;16.38;2.10;;;24.70;65.30;;;;;;5029648;28;20064;-60
2022/09/01 12:09:37;;;;;;;5.95;1.75;;;24.70;65.20;;;;;;5023816;28;20131;-59
2022/09/01 12:12:04;;;;;;;5.75;1.83;;;24.80;65.20;;;;;;5029133;28;20415;-60
2022/09/01 12:14:30;;;;;;;7.60;2.10;;;24.80;65.20;;;;;;5028330;28;20068;-61
2022/09/01 12:17:02;;;;;;;6.63;1.90;;;24.80;65.20;;;;;;5027006;28;20041;-58
2022/09/01 12:19:30;;;;;;;8.15;1.80;;;24.90;64.90;;;;;;5028313;28;20025;-59
2022/09/01 12:22:13;;;;;;;7.18;1.98;;;25.00;65.00;;;;;;5030602;28;20030;-59
2022/09/01 12:24:42;;;;;;;5.20;1.65;;;25.00;64.90;;;;;;5025534;28;20049;-60
2022/09/01 12:27:08;;;;;;;6.88;2.08;;;25.10;64.90;;;;;;5026522;28;20025;-60
2022/09/01 12:29:33;;;;;;;8.73;1.88;;;25.10;64.40;;;;;;5028133;28;20088;-62
2022/09/01 12:32:00;;;;;;;6.47;1.85;;;25.10;64.60;;;;;;5027904;28;20044;-64
2022/09/01 12:34:32;;;;;;;6.55;1.80;;;25.20;64.70;;;;;;5009858;28;20028;-60
2022/09/01 12:37:09;;;;;;;6.72;1.80;;;25.20;64.50;;;;;;5025366;28;20504;-60
2022/09/01 12:39:36;;;;;;;9.13;1.88;;;25.20;64.30;;;;;;5029323;28;20048;-60
2022/09/01 12:42:18;;;;;;;9.52;2.10;;;25.30;64.60;;;;;;5028739;28;20588;-60
2022/09/01 12:45:01;;;;;;;8.15;2.03;;;25.20;64.30;;;;;;5029291;28;20033;-59
2022/09/01 12:47:32;;;;;;;8.60;2.00;;;25.20;64.30;;;;;;5026223;28;20026;-60
2022/09/01 12:50:03;;;;;;;9.48;2.10;;;25.20;64.30;;;;;;5027726;28;20064;-60
2022/09/01 12:52:29;;;;;;;8.07;2.08;;;25.20;64.40;;;;;;5028526;28;20025;-60
2022/09/01 12:55:01;;;;;;;12.07;2.47;;;25.10;64.40;;;;;;5027770;28;20046;-60
2022/09/01 12:57:32;;;;;;;6.97;2.10;;;25.10;64.50;;;;;;5024850;28;20082;-60
2022/09/01 13:00:11;;;;;;;12.73;2.53;;;25.10;64.30;;;;;;5025109;28;20460;-60
2022/09/01 13:02:37;;;;;;;14.55;3.03;;;25.10;64.50;;;;;;5030262;28;20482;-60
2022/09/01 13:05:24;;;;;;;6.35;1.98;;;25.00;64.40;;;;;;5027145;28;20390;-60
2022/09/01 13:07:55;;;;;;;5.35;1.80;;;25.00;64.30;;;;;;5024729;28;20104;-59
2022/09/01 13:10:26;;;;;;;9.77;2.10;;;25.10;64.40;;;;;;5029000;28;20032;-60